createdAt,value
2018-09-30T00:00:41.416Z,99.30
2018-09-30T00:01:41.328Z,99.30
2018-09-30T00:02:41.240Z,99.21
2018-09-30T00:03:41.166Z,99.40
2018-09-30T00:04:41.079Z,99.77
2018-09-30T00:05:40.990Z,99.21
2018-09-30T00:06:40.929Z,99.99
2018-09-30T00:07:40.829Z,99.77
2018-09-30T00:08:40.740Z,99.77
2018-09-30T00:09:40.667Z,99.49
2018-09-30T00:10:40.579Z,99.99
2018-09-30T00:11:40.491Z,99.99
2018-09-30T00:12:40.405Z,99.99
2018-09-30T00:13:40.333Z,99.99
2018-09-30T00:14:40.241Z,99.99
2018-09-30T00:15:40.155Z,99.99
2018-09-30T00:16:40.079Z,99.58
2018-09-30T00:17:39.993Z,99.77
2018-09-30T00:18:39.906Z,99.49
2018-09-30T00:19:39.835Z,99.58
2018-09-30T00:20:39.742Z,99.58
2018-09-30T00:21:39.655Z,99.49
2018-09-30T00:22:39.569Z,99.87
2018-09-30T00:23:39.492Z,99.87
2018-09-30T00:24:39.406Z,99.58
2018-09-30T00:25:39.317Z,99.99
2018-09-30T00:26:39.242Z,99.97
2018-09-30T00:27:39.158Z,99.99
2018-09-30T00:28:39.081Z,99.99
2018-09-30T00:29:38.992Z,99.99
2018-09-30T00:30:38.906Z,99.99
2018-09-30T00:31:38.817Z,99.99
2018-09-30T00:32:38.731Z,99.99
2018-09-30T00:33:38.656Z,99.99
2018-09-30T00:34:38.573Z,99.99
2018-09-30T00:35:38.481Z,99.99
2018-09-30T00:36:38.406Z,99.99
2018-09-30T00:37:38.318Z,99.99
2018-09-30T00:38:38.276Z,99.99
2018-09-30T00:39:38.157Z,99.99
2018-09-30T00:40:38.069Z,99.99
2018-09-30T00:41:37.982Z,99.99
2018-09-30T00:42:37.895Z,99.99
2018-09-30T00:43:37.819Z,99.99
2018-09-30T00:44:37.738Z,99.99
2018-09-30T00:45:37.646Z,99.99
2018-09-30T00:46:37.569Z,99.99
2018-09-30T00:47:37.483Z,99.99
2018-09-30T00:48:37.408Z,99.99
2018-09-30T00:49:37.320Z,99.99
2018-09-30T00:50:37.236Z,99.99
2018-09-30T00:51:37.154Z,99.99
2018-09-30T00:52:37.058Z,99.99
2018-09-30T00:53:36.984Z,99.99
2018-09-30T00:54:36.896Z,99.99
2018-09-30T00:55:36.808Z,99.99
2018-09-30T00:56:36.735Z,99.99
2018-09-30T00:57:36.647Z,99.99
2018-09-30T00:58:36.559Z,99.99
2018-09-30T00:59:36.476Z,99.99
2018-09-30T01:00:36.395Z,99.99
2018-09-30T01:01:36.311Z,99.99
2018-09-30T01:02:36.223Z,99.99
2018-09-30T01:03:36.146Z,99.99
2018-09-30T01:04:36.066Z,99.99
2018-09-30T01:05:35.971Z,99.99
2018-09-30T01:06:35.896Z,99.99
2018-09-30T01:07:35.810Z,99.99
2018-09-30T01:08:35.723Z,99.99
2018-09-30T01:09:35.634Z,99.99
2018-09-30T01:10:35.563Z,99.99
2018-09-30T01:11:35.472Z,99.99
2018-09-30T01:12:35.388Z,99.99
2018-09-30T01:13:35.298Z,99.99
2018-09-30T01:14:35.239Z,99.99
2018-09-30T01:15:35.135Z,99.99
2018-09-30T01:16:35.047Z,99.99
2018-09-30T01:17:34.973Z,99.99
2018-09-30T01:18:34.885Z,99.99
2018-09-30T01:19:34.797Z,99.99
2018-09-30T01:20:34.711Z,99.99
2018-09-30T01:21:34.636Z,99.99
2018-09-30T01:22:34.548Z,99.99
2018-09-30T01:23:34.461Z,99.99
2018-09-30T01:24:34.377Z,99.99
2018-09-30T01:25:34.298Z,99.99
2018-09-30T01:26:34.214Z,99.99
2018-09-30T01:27:34.136Z,99.99
2018-09-30T01:28:34.049Z,99.99
2018-09-30T01:29:33.962Z,99.99
2018-09-30T01:30:33.874Z,99.99
2018-09-30T01:31:33.802Z,99.99
2018-09-30T01:32:33.712Z,99.99
2018-09-30T01:33:33.637Z,99.99
2018-09-30T01:34:33.540Z,99.99
2018-09-30T01:35:33.462Z,99.99
2018-09-30T01:36:33.377Z,99.99
2018-09-30T01:37:33.294Z,99.99
2018-09-30T01:38:33.200Z,99.99
2018-09-30T01:39:33.137Z,99.99
2018-09-30T01:40:33.039Z,99.99
2018-09-30T01:41:32.950Z,99.99
2018-09-30T01:42:32.864Z,99.99
2018-09-30T01:43:32.788Z,99.99
2018-09-30T01:44:32.701Z,99.99
2018-09-30T01:45:32.614Z,99.99
2018-09-30T01:46:32.539Z,99.99
2018-09-30T01:47:32.451Z,99.99
2018-09-30T01:48:32.364Z,99.99
2018-09-30T01:49:32.276Z,99.99
2018-09-30T01:50:32.201Z,99.99
2018-09-30T01:51:32.118Z,99.99
2018-09-30T01:52:32.031Z,99.99
2018-09-30T01:53:31.940Z,99.99
2018-09-30T01:54:31.865Z,99.99
2018-09-30T01:55:31.781Z,99.99
2018-09-30T01:56:31.690Z,99.99
2018-09-30T01:57:31.603Z,99.99
2018-09-30T01:58:31.529Z,99.99
2018-09-30T01:59:31.441Z,99.99
2018-09-30T02:00:31.353Z,99.99
2018-09-30T02:01:31.280Z,99.99
2018-09-30T02:02:31.191Z,99.99
2018-09-30T02:03:31.105Z,99.99
2018-09-30T02:04:31.016Z,99.99
2018-09-30T02:05:30.941Z,99.99
2018-09-30T02:06:30.853Z,99.99
2018-09-30T02:07:30.771Z,99.99
2018-09-30T02:08:30.678Z,99.99
2018-09-30T02:09:30.609Z,99.99
2018-09-30T02:10:30.517Z,99.99
2018-09-30T02:11:30.429Z,99.99
2018-09-30T02:12:30.342Z,99.99
2018-09-30T02:13:30.267Z,99.99
2018-09-30T02:14:30.179Z,99.99
2018-09-30T02:15:30.093Z,99.99
2018-09-30T02:16:30.006Z,99.99
2018-09-30T02:17:29.946Z,99.99
2018-09-30T02:18:29.843Z,99.99
2018-09-30T02:19:29.755Z,99.99
2018-09-30T02:20:29.680Z,99.99
2018-09-30T02:21:29.593Z,99.99
2018-09-30T02:22:29.505Z,99.99
2018-09-30T02:23:29.418Z,99.99
2018-09-30T02:24:29.344Z,99.99
2018-09-30T02:25:29.255Z,99.99
2018-09-30T02:26:29.169Z,99.99
2018-09-30T02:27:29.094Z,99.99
2018-09-30T02:28:29.005Z,99.99
2018-09-30T02:29:28.924Z,99.99
2018-09-30T02:30:28.833Z,99.99
2018-09-30T02:31:28.745Z,99.99
2018-09-30T02:32:28.671Z,99.99
2018-09-30T02:33:28.595Z,99.99
2018-09-30T02:34:28.495Z,99.99
2018-09-30T02:35:28.408Z,99.99
2018-09-30T02:36:28.332Z,99.99
2018-09-30T02:37:28.246Z,99.99
2018-09-30T02:38:28.159Z,99.99
2018-09-30T02:39:28.082Z,99.99
2018-09-30T02:40:27.994Z,99.99
2018-09-30T02:41:27.907Z,99.99
2018-09-30T02:42:27.822Z,99.99
2018-09-30T02:43:27.750Z,99.99
2018-09-30T02:44:27.660Z,99.99
2018-09-30T02:45:27.577Z,99.99
2018-09-30T02:46:27.482Z,99.99
2018-09-30T02:47:27.408Z,99.99
2018-09-30T02:48:27.321Z,99.99
2018-09-30T02:49:27.234Z,99.99
2018-09-30T02:50:27.147Z,99.99
2018-09-30T02:51:27.072Z,99.99
2018-09-30T02:52:26.985Z,99.99
2018-09-30T02:53:26.897Z,99.99
2018-09-30T02:54:26.822Z,99.99
2018-09-30T02:55:26.734Z,99.99
2018-09-30T02:56:26.647Z,99.99
2018-09-30T02:57:26.560Z,99.99
2018-09-30T02:58:26.485Z,99.99
2018-09-30T02:59:26.398Z,99.99
2018-09-30T03:00:26.310Z,99.99
2018-09-30T03:01:26.229Z,99.99
2018-09-30T03:02:26.136Z,99.99
2018-09-30T03:03:26.075Z,99.99
2018-09-30T03:04:25.973Z,99.99
2018-09-30T03:05:25.885Z,99.99
2018-09-30T03:06:25.810Z,99.99
2018-09-30T03:07:25.724Z,99.99
2018-09-30T03:08:25.635Z,99.99
2018-09-30T03:09:25.549Z,99.99
2018-09-30T03:10:25.472Z,99.99
2018-09-30T03:11:25.385Z,99.99
2018-09-30T03:12:25.299Z,99.99
2018-09-30T03:13:25.214Z,99.99
2018-09-30T03:14:25.138Z,99.99
2018-09-30T03:15:25.050Z,99.99
2018-09-30T03:16:24.960Z,99.99
2018-09-30T03:17:24.877Z,99.99
2018-09-30T03:18:24.800Z,99.99
2018-09-30T03:19:24.711Z,99.99
2018-09-30T03:20:24.624Z,99.99
2018-09-30T03:21:24.536Z,99.99
2018-09-30T03:22:24.461Z,99.99
2018-09-30T03:23:24.384Z,99.99
2018-09-30T03:24:24.287Z,99.99
2018-09-30T03:25:24.200Z,99.99
2018-09-30T03:26:24.126Z,99.99
2018-09-30T03:27:24.037Z,99.99
2018-09-30T03:28:23.967Z,99.99
2018-09-30T03:29:23.863Z,99.99
2018-09-30T03:30:23.788Z,99.99
2018-09-30T03:31:23.701Z,99.99
2018-09-30T03:32:23.612Z,99.99
2018-09-30T03:33:23.537Z,99.99
2018-09-30T03:34:23.451Z,99.99
2018-09-30T03:35:23.362Z,99.99
2018-09-30T03:36:23.276Z,99.99
2018-09-30T03:37:23.201Z,99.99
2018-09-30T03:38:23.112Z,99.99
2018-09-30T03:39:23.049Z,99.99
2018-09-30T03:40:22.939Z,99.99
2018-09-30T03:41:22.863Z,99.99
2018-09-30T03:42:22.779Z,99.99
2018-09-30T03:43:22.688Z,99.99
2018-09-30T03:44:22.601Z,99.99
2018-09-30T03:45:22.527Z,99.99
2018-09-30T03:46:22.439Z,99.99
2018-09-30T03:47:22.351Z,99.99
2018-09-30T03:48:22.277Z,99.99
2018-09-30T03:49:22.189Z,99.99
2018-09-30T03:50:22.102Z,99.99
2018-09-30T03:51:22.014Z,99.99
2018-09-30T03:52:21.929Z,99.99
2018-09-30T03:53:21.853Z,99.99
2018-09-30T03:54:21.764Z,99.99
2018-09-30T03:55:21.679Z,99.99
2018-09-30T03:56:21.591Z,99.99
2018-09-30T03:57:21.539Z,99.99
2018-09-30T03:58:21.434Z,99.99
2018-09-30T03:59:21.340Z,99.99
2018-09-30T04:00:21.261Z,99.99
2018-09-30T04:01:21.193Z,99.99
2018-09-30T04:02:21.091Z,99.99
2018-09-30T04:03:21.004Z,99.99
2018-09-30T04:04:20.917Z,99.99
2018-09-30T04:05:20.841Z,99.99
2018-09-30T04:06:20.755Z,99.99
2018-09-30T04:07:20.670Z,99.99
2018-09-30T04:08:20.579Z,99.99
2018-09-30T04:09:20.493Z,99.99
2018-09-30T04:10:20.415Z,99.99
2018-09-30T04:11:20.330Z,99.99
2018-09-30T04:12:20.242Z,99.99
2018-09-30T04:13:20.167Z,99.99
2018-09-30T04:14:20.080Z,99.99
2018-09-30T04:15:19.993Z,99.99
2018-09-30T04:16:19.905Z,99.99
2018-09-30T04:17:19.849Z,99.99
2018-09-30T04:18:19.755Z,99.99
2018-09-30T04:19:19.656Z,99.99
2018-09-30T04:20:19.568Z,99.99
2018-09-30T04:21:19.481Z,99.99
2018-09-30T04:22:19.406Z,99.99
2018-09-30T04:23:19.326Z,99.99
2018-09-30T04:24:19.231Z,99.99
2018-09-30T04:25:19.145Z,99.99
2018-09-30T04:26:19.068Z,99.99
2018-09-30T04:27:18.981Z,99.99
2018-09-30T04:28:18.896Z,99.99
2018-09-30T04:29:18.807Z,99.99
2018-09-30T04:30:18.734Z,99.99
2018-09-30T04:31:18.644Z,99.99
2018-09-30T04:32:18.556Z,99.99
2018-09-30T04:33:18.509Z,99.99
2018-09-30T04:34:18.406Z,99.99
2018-09-30T04:35:18.308Z,99.99
2018-09-30T04:36:18.220Z,99.99
2018-09-30T04:37:18.137Z,99.99
2018-09-30T04:38:18.069Z,99.99
2018-09-30T04:39:17.969Z,99.99
2018-09-30T04:40:17.885Z,99.99
2018-09-30T04:41:17.809Z,99.99
2018-09-30T04:42:17.719Z,99.99
2018-09-30T04:43:17.633Z,99.99
2018-09-30T04:44:17.545Z,99.99
2018-09-30T04:45:17.463Z,99.99
2018-09-30T04:46:17.384Z,99.99
2018-09-30T04:47:17.295Z,99.99
2018-09-30T04:48:17.209Z,99.99
2018-09-30T04:49:17.120Z,99.99
2018-09-30T04:50:17.045Z,99.99
2018-09-30T04:51:16.959Z,99.99
2018-09-30T04:52:16.871Z,99.99
2018-09-30T04:53:16.785Z,99.99
2018-09-30T04:54:16.709Z,99.99
2018-09-30T04:55:16.621Z,99.99
2018-09-30T04:56:16.535Z,99.99
2018-09-30T04:57:16.447Z,99.99
2018-09-30T04:58:16.371Z,99.99
2018-09-30T04:59:16.286Z,99.99
2018-09-30T05:00:16.200Z,99.99
2018-09-30T05:01:16.111Z,99.99
2018-09-30T05:02:16.037Z,99.99
2018-09-30T05:03:15.948Z,99.99
2018-09-30T05:04:15.861Z,99.99
2018-09-30T05:05:15.773Z,99.99
2018-09-30T05:06:15.699Z,99.99
2018-09-30T05:07:15.611Z,99.99
2018-09-30T05:08:15.523Z,99.99
2018-09-30T05:09:15.436Z,99.99
2018-09-30T05:10:15.361Z,99.99
2018-09-30T05:11:15.272Z,99.99
2018-09-30T05:12:15.186Z,99.99
2018-09-30T05:13:15.098Z,99.99
2018-09-30T05:14:15.023Z,99.99
2018-09-30T05:15:14.936Z,99.99
2018-09-30T05:16:14.918Z,99.99
2018-09-30T05:17:14.762Z,99.99
2018-09-30T05:18:14.687Z,99.99
2018-09-30T05:19:14.605Z,99.99
2018-09-30T05:20:14.524Z,99.99
2018-09-30T05:21:14.423Z,99.99
2018-09-30T05:22:14.362Z,99.99
2018-09-30T05:23:14.263Z,99.99
2018-09-30T05:24:14.176Z,99.99
2018-09-30T05:25:14.088Z,99.99
2018-09-30T05:26:14.013Z,99.99
2018-09-30T05:27:13.924Z,99.99
2018-09-30T05:28:13.838Z,99.99
2018-09-30T05:29:13.762Z,99.99
2018-09-30T05:30:13.676Z,99.99
2018-09-30T05:31:13.644Z,99.99
2018-09-30T05:32:13.501Z,99.99
2018-09-30T05:33:13.424Z,99.99
2018-09-30T05:34:13.343Z,99.99
2018-09-30T05:35:13.266Z,99.99
2018-09-30T05:36:13.164Z,99.99
2018-09-30T05:37:13.118Z,99.99
2018-09-30T05:38:13.002Z,99.99
2018-09-30T05:39:12.914Z,99.99
2018-09-30T05:40:12.826Z,99.99
2018-09-30T05:41:12.739Z,99.99
2018-09-30T05:42:12.665Z,99.99
2018-09-30T05:43:12.576Z,99.99
2018-09-30T05:44:12.495Z,99.99
2018-09-30T05:45:12.402Z,99.99
2018-09-30T05:46:12.327Z,99.99
2018-09-30T05:47:12.246Z,99.99
2018-09-30T05:48:12.152Z,99.99
2018-09-30T05:49:12.122Z,99.99
2018-09-30T05:50:11.981Z,99.99
2018-09-30T05:51:11.904Z,99.99
2018-09-30T05:52:11.816Z,99.99
2018-09-30T05:53:11.727Z,99.99
2018-09-30T05:54:11.662Z,99.99
2018-09-30T05:55:11.566Z,99.99
2018-09-30T05:56:11.478Z,99.99
2018-09-30T05:57:11.392Z,99.99
2018-09-30T05:58:11.317Z,99.99
2018-09-30T05:59:11.228Z,99.99
2018-09-30T06:00:11.141Z,99.99
2018-09-30T06:01:11.054Z,99.99
2018-09-30T06:02:10.968Z,99.99
2018-09-30T06:03:10.893Z,99.99
2018-09-30T06:04:10.804Z,99.99
2018-09-30T06:05:10.717Z,99.99
2018-09-30T06:06:10.630Z,99.99
2018-09-30T06:07:10.554Z,99.99
2018-09-30T06:08:10.467Z,99.99
2018-09-30T06:09:10.453Z,99.99
2018-09-30T06:10:10.292Z,99.99
2018-09-30T06:11:10.218Z,99.99
2018-09-30T06:12:10.132Z,99.99
2018-09-30T06:13:10.045Z,99.99
2018-09-30T06:14:10.099Z,99.99
2018-09-30T06:15:09.880Z,99.99
2018-09-30T06:16:09.797Z,99.99
2018-09-30T06:17:09.708Z,99.99
2018-09-30T06:18:09.623Z,99.99
2018-09-30T06:19:09.547Z,99.99
2018-09-30T06:20:09.456Z,99.99
2018-09-30T06:21:09.371Z,99.99
2018-09-30T06:22:09.282Z,99.99
2018-09-30T06:23:09.206Z,99.99
2018-09-30T06:24:09.152Z,99.99
2018-09-30T06:25:09.045Z,99.99
2018-09-30T06:26:08.957Z,99.99
2018-09-30T06:27:09.275Z,99.99
2018-09-30T06:28:08.794Z,99.99
2018-09-30T06:29:09.306Z,99.99
2018-09-30T06:30:08.620Z,99.99
2018-09-30T06:31:08.546Z,99.99
2018-09-30T06:32:08.494Z,99.99
2018-09-30T06:33:08.357Z,99.49
2018-09-30T06:35:08.196Z,99.40
2018-09-30T06:36:08.125Z,99.99
2018-09-30T06:37:08.048Z,99.99
2018-09-30T06:38:07.945Z,99.40
2018-09-30T06:39:07.858Z,99.02
2018-09-30T06:40:07.780Z,98.26
2018-09-30T06:41:07.684Z,98.54
2018-09-30T06:42:07.620Z,97.69
2018-09-30T06:43:07.522Z,98.07
2018-09-30T06:44:07.434Z,98.07
2018-09-30T06:45:07.451Z,97.60
2018-09-30T06:46:07.271Z,97.31
2018-09-30T06:47:07.184Z,97.55
2018-09-30T06:48:07.098Z,96.98
2018-09-30T06:49:07.022Z,96.83
2018-09-30T06:50:06.933Z,96.41
2018-09-30T06:51:06.851Z,96.22
2018-09-30T06:52:06.760Z,96.12
2018-09-30T06:53:06.685Z,95.46
2018-09-30T06:54:06.597Z,94.98
2018-09-30T06:55:06.511Z,95.27
2018-09-30T06:56:06.434Z,94.60
2018-09-30T06:57:06.348Z,94.37
2018-09-30T06:58:06.271Z,94.27
2018-09-30T06:59:06.173Z,93.79
2018-09-30T07:00:06.099Z,93.99
2018-09-30T07:01:06.012Z,93.60
2018-09-30T07:02:05.934Z,93.70
2018-09-30T07:03:05.848Z,93.32
2018-09-30T07:04:05.772Z,93.41
2018-09-30T07:05:05.674Z,92.56
2018-09-30T07:06:05.589Z,92.61
2018-09-30T07:07:05.511Z,92.03
2018-09-30T07:08:05.424Z,91.66
2018-09-30T07:09:05.336Z,91.18
2018-09-30T07:10:05.262Z,91.18
2018-09-30T07:11:05.175Z,90.14
2018-09-30T07:12:05.087Z,89.32
2018-09-30T07:13:05.014Z,88.94
2018-09-30T07:14:04.925Z,88.28
2018-09-30T07:15:04.836Z,87.51
2018-09-30T07:16:04.761Z,84.41
2018-09-30T07:17:04.676Z,82.26
2018-09-30T07:18:04.587Z,80.58
2018-09-30T07:19:04.525Z,78.86
2018-09-30T07:20:04.428Z,78.14
2018-09-30T07:21:04.337Z,77.28
2018-09-30T07:22:04.262Z,75.76
2018-09-30T07:23:04.175Z,75.51
2018-09-30T07:24:04.089Z,75.32
2018-09-30T07:25:04.013Z,73.98
2018-09-30T07:26:03.925Z,72.74
2018-09-30T07:27:03.850Z,72.68
2018-09-30T07:28:03.764Z,71.92
2018-09-30T07:29:03.687Z,71.28
2018-09-30T07:30:03.602Z,70.04
2018-09-30T07:31:03.515Z,68.93
2018-09-30T07:32:03.453Z,68.26
2018-09-30T07:33:03.352Z,67.71
2018-09-30T07:34:03.276Z,69.05
2018-09-30T07:35:03.190Z,71.02
2018-09-30T07:36:03.114Z,71.72
2018-09-30T07:37:03.027Z,74.19
2018-09-30T07:38:02.953Z,75.43
2018-09-30T07:39:02.878Z,76.01
2018-09-30T07:40:02.789Z,74.93
2018-09-30T07:41:02.706Z,73.92
2018-09-30T07:42:02.628Z,71.92
2018-09-30T07:43:02.540Z,71.25
2018-09-30T07:44:02.465Z,70.33
2018-09-30T07:45:02.378Z,68.32
2018-09-30T07:46:02.303Z,68.10
2018-09-30T07:47:02.215Z,70.29
2018-09-30T07:48:02.151Z,71.02
2018-09-30T07:49:02.054Z,71.84
2018-09-30T07:50:01.978Z,73.75
2018-09-30T07:51:01.906Z,73.75
2018-09-30T07:52:01.819Z,73.08
2018-09-30T07:53:01.732Z,71.63
2018-09-30T07:54:01.654Z,69.91
2018-09-30T07:55:01.566Z,69.85
2018-09-30T07:56:01.491Z,68.74
2018-09-30T07:57:01.405Z,67.21
2018-09-30T07:58:01.330Z,66.63
2018-09-30T07:59:01.243Z,66.19
2018-09-30T08:00:01.167Z,65.42
2018-09-30T08:01:01.091Z,65.33
2018-09-30T08:02:01.005Z,63.99
2018-09-30T08:03:00.929Z,64.02
2018-09-30T08:04:00.843Z,63.00
2018-09-30T08:05:00.767Z,62.52
2018-09-30T08:06:00.682Z,61.94
2018-09-30T08:07:00.606Z,62.55
2018-09-30T08:08:00.531Z,63.67
2018-09-30T08:09:00.443Z,62.26
2018-09-30T08:10:00.375Z,59.80
2018-09-30T08:11:00.292Z,60.28
2018-09-30T08:12:00.207Z,58.69
2018-09-30T08:13:00.132Z,57.75
2018-09-30T08:14:00.043Z,56.96
2018-09-30T08:14:59.969Z,58.17
2018-09-30T08:15:59.893Z,59.04
2018-09-30T08:16:59.872Z,58.94
2018-09-30T08:17:59.732Z,58.78
2018-09-30T08:18:59.658Z,58.69
2018-09-30T08:19:59.583Z,57.46
2018-09-30T08:20:59.494Z,56.44
2018-09-30T08:21:59.420Z,55.10
2018-09-30T08:22:59.344Z,54.80
2018-09-30T08:23:59.273Z,54.58
2018-09-30T08:24:59.182Z,55.30
2018-09-30T08:25:59.111Z,57.03
2018-09-30T08:26:59.033Z,58.44
2018-09-30T08:27:58.958Z,59.08
2018-09-30T08:28:58.883Z,59.75
2018-09-30T08:29:58.794Z,60.22
2018-09-30T08:30:58.720Z,59.75
2018-09-30T08:31:58.647Z,60.22
2018-09-30T08:32:58.559Z,60.06
2018-09-30T08:33:58.483Z,59.13
2018-09-30T08:34:58.413Z,57.70
2018-09-30T08:35:58.334Z,57.18
2018-09-30T08:36:58.246Z,56.76
2018-09-30T08:37:58.184Z,57.56
2018-09-30T08:38:58.096Z,56.51
2018-09-30T08:39:58.078Z,54.97
2018-09-30T08:40:57.936Z,55.80
2018-09-30T08:41:57.860Z,56.45
2018-09-30T08:42:57.784Z,56.83
2018-09-30T08:43:57.757Z,56.96
2018-09-30T08:44:57.621Z,56.38
2018-09-30T08:45:57.547Z,56.34
2018-09-30T08:46:57.472Z,55.57
2018-09-30T08:47:57.399Z,54.64
2018-09-30T08:48:57.310Z,53.80
2018-09-30T08:49:57.236Z,53.03
2018-09-30T08:50:57.162Z,53.20
2018-09-30T08:51:57.086Z,52.94
2018-09-30T08:52:56.997Z,52.46
2018-09-30T08:53:56.996Z,51.64
2018-09-30T08:54:56.847Z,50.95
2018-09-30T08:55:56.787Z,51.43
2018-09-30T08:56:56.687Z,50.95
2018-09-30T08:57:56.612Z,50.92
2018-09-30T08:58:56.539Z,52.31
2018-09-30T08:59:56.463Z,55.13
2018-09-30T09:00:56.374Z,55.55
2018-09-30T09:01:56.299Z,54.85
2018-09-30T09:02:56.232Z,55.45
2018-09-30T09:03:56.150Z,55.64
2018-09-30T09:04:56.074Z,54.90
2018-09-30T09:05:55.987Z,53.91
2018-09-30T09:06:55.913Z,53.67
2018-09-30T09:07:55.824Z,55.49
2018-09-30T09:08:55.752Z,56.93
2018-09-30T09:09:55.720Z,56.81
2018-09-30T09:10:55.638Z,58.47
2018-09-30T09:11:55.514Z,59.23
2018-09-30T09:12:55.439Z,60.13
2018-09-30T09:13:55.350Z,59.94
2018-09-30T09:14:55.275Z,59.27
2018-09-30T09:15:55.202Z,58.79
2018-09-30T09:16:55.117Z,58.88
2018-09-30T09:17:55.039Z,59.36
2018-09-30T09:18:54.963Z,59.65
2018-09-30T09:19:54.875Z,60.03
2018-09-30T09:20:54.814Z,60.03
2018-09-30T09:21:54.714Z,60.83
2018-09-30T09:22:54.768Z,59.30
2018-09-30T09:23:54.565Z,59.20
2018-09-30T09:24:54.476Z,59.01
2018-09-30T09:25:54.413Z,59.11
2018-09-30T09:26:54.314Z,59.68
2018-09-30T09:27:54.299Z,60.76
2018-09-30T09:28:54.166Z,59.90
2018-09-30T09:29:54.077Z,59.80
2018-09-30T09:30:54.002Z,58.84
2018-09-30T09:31:53.916Z,58.17
2018-09-30T09:32:53.872Z,58.56
2018-09-30T09:33:53.765Z,58.44
2018-09-30T09:34:53.693Z,58.50
2018-09-30T09:35:53.603Z,59.84
2018-09-30T09:36:53.516Z,59.94
2018-09-30T09:37:53.441Z,60.80
2018-09-30T09:38:53.367Z,60.13
2018-09-30T09:39:53.278Z,59.84
2018-09-30T09:40:53.203Z,59.27
2018-09-30T09:41:53.117Z,59.55
2018-09-30T09:42:53.044Z,60.13
2018-09-30T09:43:52.953Z,59.84
2018-09-30T09:44:52.878Z,59.68
2018-09-30T09:45:52.804Z,60.16
2018-09-30T09:46:52.723Z,59.97
2018-09-30T09:47:52.642Z,59.68
2018-09-30T09:48:52.553Z,60.06
2018-09-30T09:49:52.479Z,60.16
2018-09-30T09:50:52.394Z,59.20
2018-09-30T09:51:52.318Z,58.94
2018-09-30T09:52:52.243Z,58.75
2018-09-30T09:53:52.157Z,58.56
2018-09-30T09:54:52.079Z,58.46
2018-09-30T09:55:51.993Z,58.65
2018-09-30T09:56:51.918Z,57.79
2018-09-30T09:57:51.831Z,57.21
2018-09-30T09:58:51.766Z,58.17
2018-09-30T09:59:51.692Z,57.31
2018-09-30T10:00:51.594Z,57.21
2018-09-30T10:01:51.521Z,56.61
2018-09-30T10:02:51.436Z,57.48
2018-09-30T10:03:51.355Z,57.48
2018-09-30T10:04:51.293Z,57.57
2018-09-30T10:05:51.198Z,58.84
2018-09-30T10:06:51.118Z,57.98
2018-09-30T10:07:51.030Z,57.03
2018-09-30T10:08:50.955Z,55.97
2018-09-30T10:09:50.920Z,56.45
2018-09-30T10:10:50.824Z,56.26
2018-09-30T10:11:50.720Z,56.13
2018-09-30T10:12:50.631Z,56.52
2018-09-30T10:13:50.557Z,57.50
2018-09-30T10:14:50.484Z,56.83
2018-09-30T10:15:50.397Z,57.12
2018-09-30T10:16:50.320Z,56.35
2018-09-30T10:17:50.246Z,56.35
2018-09-30T10:18:50.161Z,56.19
2018-09-30T10:19:50.082Z,55.93
2018-09-30T10:20:49.996Z,54.66
2018-09-30T10:21:49.921Z,54.58
2018-09-30T10:22:49.846Z,54.71
2018-09-30T10:23:49.758Z,53.68
2018-09-30T10:24:49.683Z,52.39
2018-09-30T10:25:49.608Z,51.38
2018-09-30T10:26:49.521Z,49.05
2018-09-30T10:27:49.446Z,49.15
2018-09-30T10:28:49.380Z,49.41
2018-09-30T10:29:49.285Z,50.18
2018-09-30T10:30:49.208Z,50.15
2018-09-30T10:31:49.146Z,50.25
2018-09-30T10:32:49.059Z,50.25
2018-09-30T10:33:48.987Z,50.80
2018-09-30T10:34:48.897Z,51.50
2018-09-30T10:35:48.822Z,51.69
2018-09-30T10:36:48.747Z,51.11
2018-09-30T10:37:48.676Z,51.28
2018-09-30T10:38:48.657Z,51.67
2018-09-30T10:39:48.509Z,51.86
2018-09-30T10:40:48.436Z,51.67
2018-09-30T10:41:48.360Z,51.59
2018-09-30T10:42:48.284Z,51.31
2018-09-30T10:43:48.209Z,50.23
2018-09-30T10:44:48.123Z,50.54
2018-09-30T10:45:48.047Z,49.79
2018-09-30T10:46:47.973Z,48.66
2018-09-30T10:47:47.899Z,47.80
2018-09-30T10:48:47.824Z,46.98
2018-09-30T10:49:47.738Z,45.63
2018-09-30T10:50:47.674Z,46.23
2018-09-30T10:51:47.586Z,45.68
2018-09-30T10:52:47.511Z,45.21
2018-09-30T10:53:47.436Z,44.18
2018-09-30T10:54:47.360Z,44.69
2018-09-30T10:55:47.276Z,44.35
2018-09-30T10:56:47.254Z,43.27
2018-09-30T10:57:47.126Z,43.55
2018-09-30T10:58:47.049Z,43.85
2018-09-30T10:59:46.975Z,43.07
2018-09-30T11:00:46.906Z,42.30
2018-09-30T11:01:46.836Z,42.59
2018-09-30T11:02:46.750Z,42.88
2018-09-30T11:03:46.675Z,42.66
2018-09-30T11:04:46.600Z,41.71
2018-09-30T11:05:46.525Z,41.94
2018-09-30T11:06:46.458Z,40.55
2018-09-30T11:07:46.362Z,40.05
2018-09-30T11:08:46.287Z,40.24
2018-09-30T11:09:46.278Z,40.59
2018-09-30T11:10:46.138Z,42.49
2018-09-30T11:11:46.063Z,42.40
2018-09-30T11:12:45.988Z,42.60
2018-09-30T11:13:45.914Z,44.07
2018-09-30T11:14:45.838Z,44.45
2018-09-30T11:15:45.763Z,43.85
2018-09-30T11:16:45.688Z,44.26
2018-09-30T11:17:45.600Z,43.32
2018-09-30T11:18:45.526Z,43.40
2018-09-30T11:19:45.452Z,43.17
2018-09-30T11:20:45.376Z,41.75
2018-09-30T11:21:45.301Z,40.42
2018-09-30T11:22:45.227Z,40.34
2018-09-30T11:23:45.152Z,40.36
2018-09-30T11:24:45.078Z,38.93
2018-09-30T11:25:45.003Z,37.70
2018-09-30T11:26:44.928Z,37.65
2018-09-30T11:27:44.852Z,38.41
2018-09-30T11:28:44.777Z,38.89
2018-09-30T11:29:44.713Z,38.51
2018-09-30T11:30:44.628Z,38.16
2018-09-30T11:31:44.585Z,37.88
2018-09-30T11:32:44.480Z,36.82
2018-09-30T11:33:44.415Z,37.29
2018-09-30T11:34:44.328Z,37.19
2018-09-30T11:35:44.252Z,37.63
2018-09-30T11:36:44.183Z,36.76
2018-09-30T11:37:44.115Z,36.57
2018-09-30T11:38:44.041Z,36.80
2018-09-30T11:39:43.967Z,35.36
2018-09-30T11:40:43.891Z,36.44
2018-09-30T11:41:43.820Z,36.47
2018-09-30T11:42:43.754Z,34.87
2018-09-30T11:43:43.669Z,35.06
2018-09-30T11:44:43.605Z,36.75
2018-09-30T11:45:43.534Z,37.37
2018-09-30T11:46:43.455Z,37.08
2018-09-30T11:47:43.383Z,36.80
2018-09-30T11:48:43.305Z,36.80
2018-09-30T11:49:43.242Z,36.22
2018-09-30T11:50:43.167Z,36.61
2018-09-30T11:51:43.093Z,36.92
2018-09-30T11:52:43.079Z,36.34
2018-09-30T11:53:42.943Z,36.44
2018-09-30T11:54:42.869Z,35.97
2018-09-30T11:55:42.806Z,36.08
2018-09-30T11:56:42.732Z,36.41
2018-09-30T11:57:42.656Z,34.94
2018-09-30T11:58:42.581Z,34.09
2018-09-30T11:59:42.505Z,34.13
2018-09-30T12:00:42.444Z,36.30
2018-09-30T12:01:42.368Z,36.63
2018-09-30T12:02:42.293Z,36.16
2018-09-30T12:03:42.232Z,35.20
2018-09-30T12:04:42.144Z,36.32
2018-09-30T12:05:42.082Z,36.71
2018-09-30T12:06:42.007Z,37.54
2018-09-30T12:07:41.933Z,38.02
2018-09-30T12:08:41.856Z,37.56
2018-09-30T12:09:41.794Z,37.27
2018-09-30T12:10:41.719Z,37.10
2018-09-30T12:11:41.647Z,36.22
2018-09-30T12:12:41.569Z,36.32
2018-09-30T12:13:41.495Z,37.08
2018-09-30T12:14:41.433Z,37.12
2018-09-30T12:15:41.358Z,37.87
2018-09-30T12:16:41.283Z,39.22
2018-09-30T12:17:41.214Z,38.41
2018-09-30T12:18:41.194Z,37.73
2018-09-30T12:19:41.058Z,37.54
2018-09-30T12:20:40.983Z,37.67
2018-09-30T12:21:40.920Z,37.13
2018-09-30T12:22:40.849Z,36.24
2018-09-30T12:23:40.784Z,35.94
2018-09-30T12:24:40.695Z,35.84
2018-09-30T12:27:46.995Z,34.41
2018-09-30T12:28:46.924Z,34.97
2018-09-30T12:29:46.845Z,36.13
2018-09-30T12:30:46.785Z,35.76
2018-09-30T12:31:46.709Z,36.03
2018-09-30T12:32:46.634Z,36.07
2018-09-30T12:33:46.559Z,35.49
2018-09-30T12:34:46.485Z,35.26
2018-09-30T12:35:46.409Z,35.26
2018-09-30T12:36:46.347Z,35.55
2018-09-30T12:37:46.272Z,35.57
2018-09-30T12:38:46.209Z,35.28
2018-09-30T12:39:46.121Z,35.20
2018-09-30T12:42:52.422Z,34.44
2018-09-30T12:43:52.347Z,33.76
2018-09-30T12:44:52.285Z,33.84
2018-09-30T12:45:52.211Z,35.20
2018-09-30T12:46:52.136Z,35.26
2018-09-30T12:47:52.060Z,35.47
2018-09-30T12:48:51.998Z,35.10
2018-09-30T12:49:51.923Z,34.81
2018-09-30T12:50:51.862Z,34.42
2018-09-30T12:51:51.773Z,34.76
2018-09-30T12:52:51.699Z,36.03
2018-09-30T12:53:51.639Z,36.13
2018-09-30T12:54:51.562Z,35.78
2018-09-30T12:55:51.491Z,34.52
2018-09-30T12:56:51.412Z,34.12